Time;durP1;ratioP1;P1;durP2;ratioP2;P2;SDS_P1;SDS_P2;PMS_P1;PMS_P2;Temp;Humidity;BMP_temperature;BMP_pressure;BME280_temperature;BME280_humidity;BME280_pressure;Samples;Min_cycle;Max_cycle;Signal;HPM_P1;HPM_P2
2023/02/08 00:01:17;;;;;;;6.87;4.77;;;1.40;99.90;;;;;;5028636;28;20493;-69
2023/02/08 00:03:43;;;;;;;9.57;5.67;;;1.30;99.90;;;;;;5030556;28;20464;-68
2023/02/08 00:06:09;;;;;;;8.83;5.43;;;1.30;99.90;;;;;;5027998;28;20479;-68
2023/02/08 00:08:36;;;;;;;12.63;5.90;;;1.20;99.90;;;;;;5032875;28;20473;-69
2023/02/08 00:11:03;;;;;;;9.37;5.50;;;1.20;99.90;;;;;;5015544;28;20462;-68
2023/02/08 00:13:29;;;;;;;15.87;6.20;;;1.20;99.90;;;;;;5029638;28;20465;-68
2023/02/08 00:15:54;;;;;;;10.40;4.53;;;1.20;99.90;;;;;;5021203;28;20466;-68
2023/02/08 00:18:21;;;;;;;9.27;5.23;;;1.20;99.90;;;;;;5024776;28;20472;-67
2023/02/08 00:20:47;;;;;;;8.80;5.13;;;1.20;99.90;;;;;;5028015;28;20343;-69
2023/02/08 00:23:13;;;;;;;8.00;5.57;;;1.20;99.90;;;;;;5039159;28;20535;-68
2023/02/08 00:25:40;;;;;;;6.77;5.30;;;1.20;99.90;;;;;;5044913;28;20473;-69
2023/02/08 00:28:07;;;;;;;7.40;5.07;;;1.20;99.90;;;;;;5022523;28;20514;-67
2023/02/08 00:30:34;;;;;;;10.33;5.57;;;1.20;99.90;;;;;;5022779;28;20462;-69
2023/02/08 00:33:00;;;;;;;8.57;5.00;;;1.20;99.90;;;;;;5035899;28;20465;-68
2023/02/08 00:35:27;;;;;;;11.37;5.70;;;1.10;99.90;;;;;;5040340;28;20556;-68
2023/02/08 00:37:53;;;;;;;9.73;5.27;;;1.20;99.90;;;;;;5022263;28;20474;-68
2023/02/08 00:40:18;;;;;;;12.30;5.63;;;1.10;99.90;;;;;;5026536;28;20469;-68
2023/02/08 00:42:44;;;;;;;9.13;4.87;;;1.10;99.90;;;;;;5022419;28;20259;-69
2023/02/08 00:45:10;;;;;;;13.87;6.43;;;1.10;99.90;;;;;;5022961;28;20264;-69
2023/02/08 00:47:36;;;;;;;8.00;5.50;;;1.10;99.90;;;;;;5025992;28;20282;-69
2023/02/08 00:50:03;;;;;;;12.83;5.67;;;1.00;99.90;;;;;;5019695;28;20603;-69
2023/02/08 00:52:29;;;;;;;11.10;6.30;;;1.00;99.90;;;;;;5040443;28;20217;-69
2023/02/08 00:54:55;;;;;;;8.67;5.67;;;1.00;99.90;;;;;;5019328;28;20823;-69
2023/02/08 00:57:20;;;;;;;10.27;5.87;;;1.00;99.90;;;;;;5041262;28;20223;-68
2023/02/08 00:59:46;;;;;;;12.50;5.63;;;1.00;99.90;;;;;;5042845;28;20257;-68
2023/02/08 01:02:11;;;;;;;9.00;5.60;;;1.00;99.90;;;;;;5039075;28;20240;-68
2023/02/08 01:04:38;;;;;;;7.80;5.50;;;1.00;99.90;;;;;;5040729;28;20239;-68
2023/02/08 01:07:04;;;;;;;10.10;5.37;;;1.00;99.90;;;;;;5021922;28;20229;-68
2023/02/08 01:09:30;;;;;;;9.07;5.30;;;0.90;99.90;;;;;;5042680;28;20530;-68
2023/02/08 01:11:56;;;;;;;8.67;6.07;;;0.90;99.90;;;;;;5022143;28;20461;-69
2023/02/08 01:14:21;;;;;;;6.80;4.57;;;0.90;99.90;;;;;;5017034;28;20231;-69
2023/02/08 01:16:47;;;;;;;8.60;5.90;;;0.90;99.90;;;;;;5042437;28;20272;-68
2023/02/08 01:19:13;;;;;;;8.47;6.20;;;0.90;99.90;;;;;;5017166;28;20225;-69
2023/02/08 01:21:41;;;;;;;12.67;6.10;;;0.90;99.90;;;;;;5041908;28;20469;-68
2023/02/08 01:24:07;;;;;;;6.93;4.43;;;0.90;99.90;;;;;;5040715;28;20463;-67
2023/02/08 01:26:33;;;;;;;8.90;5.30;;;0.90;99.90;;;;;;5026158;28;20515;-69
2023/02/08 01:28:59;;;;;;;9.73;6.13;;;0.90;99.90;;;;;;5022046;28;20458;-69
2023/02/08 01:31:30;;;;;;;6.13;4.33;;;0.80;99.90;;;;;;5040361;28;20487;-69
2023/02/08 01:33:59;;;;;;;10.43;5.30;;;0.80;99.90;;;;;;5038876;28;20460;-68
2023/02/08 01:36:27;;;;;;;11.60;4.97;;;0.80;99.90;;;;;;5038322;28;20883;-69
2023/02/08 01:38:53;;;;;;;8.73;4.90;;;0.80;99.90;;;;;;5037927;28;20456;-68
2023/02/08 01:41:24;;;;;;;12.00;5.27;;;0.80;99.90;;;;;;5041848;28;20871;-69
2023/02/08 01:44:09;;;;;;;9.20;5.47;;;0.80;99.90;;;;;;5037938;28;20221;-69
2023/02/08 01:46:40;;;;;;;7.03;4.53;;;0.80;99.90;;;;;;5042110;28;20470;-68
2023/02/08 01:49:16;;;;;;;10.03;4.70;;;0.80;99.90;;;;;;5037980;28;20501;-68
2023/02/08 01:51:49;;;;;;;10.20;4.97;;;0.70;99.90;;;;;;5041228;28;20542;-68
2023/02/08 01:54:17;;;;;;;4.77;4.33;;;0.80;99.90;;;;;;5038812;28;20834;-69
2023/02/08 01:56:45;;;;;;;11.67;5.00;;;0.80;99.90;;;;;;5043001;28;20459;-68
2023/02/08 02:00:02;;;;;;;10.77;5.30;;;0.70;99.90;;;;;;5037475;28;20468;-69
2023/02/08 02:02:40;;;;;;;9.50;5.30;;;0.60;99.90;;;;;;5020889;28;20454;-69
2023/02/08 02:05:07;;;;;;;8.97;5.17;;;0.70;99.90;;;;;;5030976;28;20462;-68
2023/02/08 02:07:33;;;;;;;7.17;4.47;;;0.70;99.90;;;;;;5015939;28;20455;-68
2023/02/08 02:10:06;;;;;;;5.57;4.00;;;0.70;99.90;;;;;;5016438;28;20459;-68
2023/02/08 02:12:32;;;;;;;9.20;5.80;;;0.60;99.90;;;;;;5038443;28;20242;-70
2023/02/08 02:14:59;;;;;;;6.23;5.03;;;0.60;99.90;;;;;;5017380;28;21176;-67
2023/02/08 02:17:25;;;;;;;14.53;5.07;;;0.60;99.90;;;;;;5018411;28;20441;-69
2023/02/08 02:20:09;;;;;;;7.87;4.40;;;0.60;99.90;;;;;;5034415;28;20538;-69
2023/02/08 02:23:14;;;;;;;10.30;5.63;;;0.60;99.90;;;;;;5037964;28;20214;-69
2023/02/08 02:26:09;;;;;;;9.43;4.80;;;0.60;99.90;;;;;;5024927;28;20510;-69
2023/02/08 02:28:40;;;;;;;6.90;4.20;;;0.60;99.90;;;;;;5027427;28;20462;-69
2023/02/08 02:31:21;;;;;;;7.50;5.17;;;0.60;99.90;;;;;;5023320;28;20456;-68
2023/02/08 02:34:02;;;;;;;7.00;5.23;;;0.60;99.90;;;;;;5026962;28;20469;-68
2023/02/08 02:36:52;;;;;;;10.17;4.77;;;0.60;99.90;;;;;;5033271;28;20633;-69
2023/02/08 02:39:27;;;;;;;11.20;5.40;;;0.50;99.90;;;;;;5044298;28;20481;-69
2023/02/08 02:45:12;;;;;;;7.60;5.03;;;0.60;99.90;;;;;;5047250;28;20448;-66
2023/02/08 02:47:44;;;;;;;5.50;4.10;;;0.50;99.90;;;;;;5042443;28;20456;-68
2023/02/08 02:50:13;;;;;;;5.50;4.30;;;0.50;99.90;;;;;;5038187;28;20564;-68
2023/02/08 02:52:58;;;;;;;7.93;5.03;;;0.50;99.90;;;;;;5027733;28;20467;-69
2023/02/08 02:55:27;;;;;;;9.03;4.50;;;0.50;99.90;;;;;;5040928;28;20453;-69
2023/02/08 02:57:56;;;;;;;6.70;4.30;;;0.50;99.90;;;;;;5038304;28;20476;-67
2023/02/08 03:00:24;;;;;;;8.33;4.50;;;0.50;99.90;;;;;;5034765;28;20894;-69
2023/02/08 03:02:50;;;;;;;5.13;3.90;;;0.40;99.90;;;;;;5027295;28;20500;-70
2023/02/08 03:05:17;;;;;;;9.83;4.93;;;0.30;99.90;;;;;;5038270;28;20520;-69
2023/02/08 03:07:54;;;;;;;6.83;4.53;;;0.30;99.90;;;;;;5027121;28;20461;-67
2023/02/08 03:10:41;;;;;;;7.97;4.60;;;0.30;99.90;;;;;;5045593;28;20456;-68
2023/02/08 03:13:31;;;;;;;6.03;4.30;;;0.30;99.90;;;;;;5040286;28;20460;-69
2023/02/08 03:16:08;;;;;;;5.27;3.70;;;0.40;99.90;;;;;;5036163;28;20502;-69
2023/02/08 03:18:50;;;;;;;8.07;4.13;;;0.20;99.90;;;;;;5023953;28;20462;-69
2023/02/08 03:21:39;;;;;;;5.33;3.57;;;0.20;99.90;;;;;;5027301;28;20475;-68
2023/02/08 03:24:26;;;;;;;6.27;3.90;;;0.20;99.90;;;;;;5033109;28;20549;-69
2023/02/08 03:27:14;;;;;;;8.13;4.73;;;0.10;99.90;;;;;;5043152;28;20526;-69
2023/02/08 03:29:58;;;;;;;11.00;3.73;;;0.20;99.90;;;;;;5044258;28;20448;-68
2023/02/08 03:32:29;;;;;;;7.20;3.80;;;0.20;99.90;;;;;;5043343;28;20462;-68
2023/02/08 03:35:10;;;;;;;5.97;3.40;;;0.10;99.90;;;;;;5040476;28;20462;-68
2023/02/08 03:37:44;;;;;;;8.13;3.70;;;0.20;99.90;;;;;;5044000;28;20450;-68
2023/02/08 03:40:17;;;;;;;5.67;4.07;;;0.10;99.90;;;;;;5041024;28;20480;-68
2023/02/08 03:42:46;;;;;;;9.23;4.83;;;0.20;99.90;;;;;;5042491;28;20603;-69
2023/02/08 03:45:24;;;;;;;7.40;3.60;;;0.10;99.90;;;;;;5040477;28;20457;-69
2023/02/08 03:47:53;;;;;;;5.80;3.80;;;0.10;99.90;;;;;;5040852;28;20467;-67
2023/02/08 03:50:21;;;;;;;6.93;4.47;;;0.10;99.90;;;;;;5017445;28;20985;-68
2023/02/08 03:52:49;;;;;;;8.20;4.23;;;0.10;99.90;;;;;;5039695;28;20483;-69
2023/02/08 03:55:18;;;;;;;6.77;4.73;;;0.10;99.90;;;;;;5041519;28;20456;-69
2023/02/08 03:58:09;;;;;;;9.00;4.80;;;0.20;99.90;;;;;;5044130;28;20453;-68
2023/02/08 04:00:40;;;;;;;8.23;4.57;;;0.20;99.90;;;;;;5040953;28;20481;-69
2023/02/08 04:03:14;;;;;;;8.23;4.63;;;0.10;99.90;;;;;;5022989;28;20808;-67
2023/02/08 04:05:40;;;;;;;6.67;3.00;;;0.10;99.90;;;;;;5045120;28;20478;-69
2023/02/08 04:08:06;;;;;;;6.37;4.00;;;0.00;99.90;;;;;;5033568;28;20452;-68
2023/02/08 04:10:31;;;;;;;8.40;4.70;;;0.00;99.90;;;;;;5042889;28;20221;-68
2023/02/08 04:12:57;;;;;;;7.30;4.27;;;0.00;99.90;;;;;;5021759;28;20226;-68
2023/02/08 04:15:26;;;;;;;4.73;3.40;;;0.00;99.90;;;;;;5009310;28;20230;-68
2023/02/08 04:17:52;;;;;;;5.70;4.17;;;0.00;99.90;;;;;;5042935;28;20261;-69
2023/02/08 04:20:18;;;;;;;16.33;4.50;;;0.00;99.90;;;;;;5043367;28;20475;-68
2023/02/08 04:22:43;;;;;;;7.93;4.37;;;0.00;99.90;;;;;;5031117;28;20468;-69
2023/02/08 04:25:09;;;;;;;7.63;3.53;;;0.00;99.90;;;;;;5041031;28;20221;-69
2023/02/08 04:27:35;;;;;;;10.77;4.20;;;0.00;99.90;;;;;;5040330;28;20639;-69
2023/02/08 04:30:00;;;;;;;5.83;3.40;;;-0.10;99.90;;;;;;5038918;28;20219;-69
2023/02/08 04:32:26;;;;;;;5.30;3.43;;;-0.10;99.90;;;;;;5044487;28;20223;-68
2023/02/08 04:34:52;;;;;;;6.33;4.20;;;-0.20;99.90;;;;;;5020660;28;20229;-69
2023/02/08 04:37:17;;;;;;;9.97;3.60;;;-0.30;99.90;;;;;;5040563;28;20277;-69
2023/02/08 04:39:43;;;;;;;5.50;3.60;;;-0.20;99.90;;;;;;5031125;28;20223;-69
2023/02/08 04:42:09;;;;;;;6.63;3.80;;;-0.20;99.90;;;;;;5022160;28;20221;-68
2023/02/08 04:44:34;;;;;;;8.07;3.80;;;-0.10;99.90;;;;;;5043957;28;20213;-68
2023/02/08 04:47:00;;;;;;;6.47;4.07;;;-0.10;99.90;;;;;;5038071;28;20214;-69
2023/02/08 04:49:26;;;;;;;7.63;4.00;;;-0.10;99.90;;;;;;5041981;28;20257;-68
2023/02/08 04:51:51;;;;;;;5.43;3.53;;;-0.10;99.90;;;;;;5032832;28;20214;-70
2023/02/08 04:54:17;;;;;;;7.37;3.67;;;-0.10;99.90;;;;;;5042562;28;20692;-68
2023/02/08 04:56:42;;;;;;;5.30;3.20;;;-0.10;99.90;;;;;;5044393;28;20240;-68
2023/02/08 04:59:08;;;;;;;5.20;3.90;;;-0.10;99.90;;;;;;5038235;28;20233;-69
2023/02/08 05:01:34;;;;;;;5.50;3.90;;;-0.10;99.90;;;;;;5022793;28;20272;-68
2023/02/08 05:03:59;;;;;;;5.23;4.20;;;-0.10;99.90;;;;;;5019682;28;20341;-68
2023/02/08 05:06:25;;;;;;;6.53;3.90;;;-0.10;99.90;;;;;;5033749;28;20587;-69
2023/02/08 05:08:51;;;;;;;7.73;4.87;;;-0.10;99.90;;;;;;5039137;28;20786;-67
2023/02/08 05:11:24;;;;;;;7.50;3.40;;;-0.10;99.90;;;;;;5040275;28;20213;-68
2023/02/08 05:13:50;;;;;;;7.57;4.53;;;-0.10;99.90;;;;;;5054496;28;20370;-68
2023/02/08 05:16:16;;;;;;;7.13;3.13;;;-0.20;99.90;;;;;;5069220;28;20539;-69
2023/02/08 05:18:43;;;;;;;6.97;4.67;;;-0.20;99.90;;;;;;5068942;28;20454;-69
2023/02/08 05:21:09;;;;;;;7.97;4.30;;;-0.30;99.90;;;;;;5055193;28;20479;-68
2023/02/08 05:23:36;;;;;;;6.67;4.63;;;-0.30;99.90;;;;;;5048177;28;20457;-67
2023/02/08 05:26:09;;;;;;;7.87;4.23;;;-0.20;99.90;;;;;;5046051;28;20226;-67
2023/02/08 05:28:35;;;;;;;4.73;3.20;;;-0.20;99.90;;;;;;5047252;28;20467;-69
2023/02/08 05:31:29;;;;;;;6.17;3.63;;;-0.30;99.90;;;;;;5031425;28;20454;-67
2023/02/08 05:33:54;;;;;;;10.00;5.30;;;-0.30;99.90;;;;;;5057448;28;20456;-68
2023/02/08 05:36:22;;;;;;;8.20;4.50;;;-0.30;99.90;;;;;;5054301;28;20479;-69
2023/02/08 05:38:48;;;;;;;6.23;4.13;;;-0.30;99.90;;;;;;5041956;28;20310;-69
2023/02/08 05:41:14;;;;;;;7.60;4.13;;;-0.30;99.90;;;;;;5036922;28;20461;-69
2023/02/08 05:43:40;;;;;;;7.40;4.43;;;-0.30;99.90;;;;;;5033934;28;20531;-67
2023/02/08 05:46:06;;;;;;;8.33;4.47;;;-0.30;99.90;;;;;;5033800;28;20457;-68
2023/02/08 05:48:32;;;;;;;6.40;3.80;;;-0.40;99.90;;;;;;5031403;28;20458;-69
2023/02/08 05:50:58;;;;;;;6.47;3.57;;;-0.50;99.90;;;;;;5044141;28;20232;-70
2023/02/08 05:53:24;;;;;;;5.70;2.80;;;-0.50;99.90;;;;;;5048374;28;20456;-68
2023/02/08 05:55:50;;;;;;;5.17;3.47;;;-0.50;99.90;;;;;;5048048;28;20460;-69
2023/02/08 05:58:16;;;;;;;5.40;3.63;;;-0.50;99.90;;;;;;5031206;28;20233;-69
2023/02/08 06:00:42;;;;;;;19.07;4.10;;;-0.50;99.90;;;;;;5026403;28;20467;-69
2023/02/08 06:03:08;;;;;;;7.70;5.30;;;-0.50;99.90;;;;;;5046679;28;20551;-69
2023/02/08 06:05:37;;;;;;;9.33;4.83;;;-0.50;99.90;;;;;;5042697;28;20462;-69
2023/02/08 06:08:03;;;;;;;5.70;3.70;;;-0.50;99.90;;;;;;5033229;28;20564;-69
2023/02/08 06:10:29;;;;;;;8.70;4.30;;;-0.50;99.90;;;;;;5041602;28;20448;-69
2023/02/08 06:12:55;;;;;;;6.37;4.07;;;-0.50;99.90;;;;;;5030845;28;20457;-69
2023/02/08 06:15:21;;;;;;;6.90;4.27;;;-0.50;99.90;;;;;;5044066;28;21015;-68
2023/02/08 06:17:46;;;;;;;9.40;4.80;;;-0.50;99.90;;;;;;5024208;28;20303;-69
2023/02/08 06:20:12;;;;;;;7.17;4.80;;;-0.60;99.90;;;;;;5046944;28;20244;-69
2023/02/08 06:22:38;;;;;;;11.00;4.67;;;-0.60;99.90;;;;;;5050650;28;20233;-69
2023/02/08 06:25:05;;;;;;;5.97;4.83;;;-0.60;99.90;;;;;;5034591;28;20452;-69
2023/02/08 06:27:31;;;;;;;5.77;3.67;;;-0.60;99.90;;;;;;5032856;28;20447;-69
2023/02/08 06:29:56;;;;;;;6.53;4.33;;;-0.60;99.90;;;;;;5045414;28;20871;-70
2023/02/08 06:32:22;;;;;;;7.93;3.63;;;-0.60;99.90;;;;;;5064786;28;20681;-69
2023/02/08 06:34:49;;;;;;;9.13;4.50;;;-0.60;99.90;;;;;;5071220;28;20632;-69
2023/02/08 06:37:16;;;;;;;7.97;3.43;;;-0.60;99.90;;;;;;5068750;28;20220;-70
2023/02/08 06:39:41;;;;;;;8.03;4.60;;;-0.60;99.90;;;;;;5033594;28;20465;-70
2023/02/08 06:42:07;;;;;;;6.10;4.47;;;-0.60;99.90;;;;;;5040898;28;20464;-69
2023/02/08 06:44:33;;;;;;;6.23;3.93;;;-0.60;99.90;;;;;;5051314;28;20216;-69
2023/02/08 06:46:58;;;;;;;8.47;4.40;;;-0.50;99.90;;;;;;5048658;28;20592;-70
2023/02/08 06:49:24;;;;;;;4.87;3.83;;;-0.60;99.90;;;;;;5030166;28;20224;-70
2023/02/08 06:51:50;;;;;;;5.73;4.30;;;-0.60;99.90;;;;;;5044646;28;20217;-70
2023/02/08 06:54:16;;;;;;;10.50;3.90;;;-0.60;99.90;;;;;;5017775;28;20229;-69
2023/02/08 06:56:42;;;;;;;12.37;4.40;;;-0.60;99.90;;;;;;5044667;28;20604;-68
2023/02/08 06:59:08;;;;;;;9.23;4.97;;;-0.60;99.90;;;;;;5031445;28;20720;-69
2023/02/08 07:01:33;;;;;;;5.70;4.30;;;-0.60;99.90;;;;;;5028161;28;20452;-70
2023/02/08 07:03:59;;;;;;;9.47;4.20;;;-0.60;99.90;;;;;;5046943;28;20217;-69
2023/02/08 07:06:25;;;;;;;8.07;4.70;;;-0.60;99.90;;;;;;5042852;28;20277;-69
2023/02/08 07:08:51;;;;;;;6.70;4.13;;;-0.60;99.90;;;;;;5045634;28;20217;-69
2023/02/08 07:11:18;;;;;;;8.33;4.53;;;-0.60;99.90;;;;;;5029068;28;20708;-70
2023/02/08 07:13:51;;;;;;;5.67;3.40;;;-0.60;99.90;;;;;;5048017;28;20212;-70
2023/02/08 07:16:18;;;;;;;8.90;4.93;;;-0.60;99.90;;;;;;5026664;28;21198;-69
2023/02/08 07:18:44;;;;;;;12.20;5.57;;;-0.50;99.90;;;;;;5047696;28;20455;-70
2023/02/08 07:21:11;;;;;;;10.63;4.63;;;-0.50;99.90;;;;;;5043213;28;20514;-70
2023/02/08 07:23:38;;;;;;;6.73;4.50;;;-0.50;99.90;;;;;;5028789;28;20511;-70
2023/02/08 07:26:10;;;;;;;8.70;5.57;;;-0.50;99.90;;;;;;5042388;28;20470;-70
2023/02/08 07:28:37;;;;;;;7.17;3.70;;;-0.50;99.90;;;;;;5027179;28;20455;-70
2023/02/08 07:31:08;;;;;;;10.33;5.83;;;-0.50;99.90;;;;;;5047040;28;20448;-70
2023/02/08 07:33:34;;;;;;;5.83;4.60;;;-0.50;99.90;;;;;;5039738;28;20452;-69
2023/02/08 07:35:59;;;;;;;9.30;4.90;;;-0.50;99.90;;;;;;5038656;28;20503;-70
2023/02/08 07:38:25;;;;;;;6.67;4.57;;;-0.50;99.90;;;;;;5043990;28;20267;-70
2023/02/08 07:40:51;;;;;;;7.43;5.07;;;-0.50;99.90;;;;;;5023852;28;20329;-69
2023/02/08 07:43:16;;;;;;;8.87;5.00;;;-0.40;99.90;;;;;;5023357;28;20221;-71
2023/02/08 07:45:52;;;;;;;13.60;4.83;;;-0.40;99.90;;;;;;5027074;28;20226;-70
2023/02/08 07:48:17;;;;;;;7.70;4.27;;;-0.40;99.90;;;;;;5023469;28;20461;-70
2023/02/08 07:50:43;;;;;;;11.00;6.77;;;-0.40;99.90;;;;;;5019681;28;20234;-70
2023/02/08 07:53:09;;;;;;;13.40;5.43;;;-0.40;99.90;;;;;;5037893;28;20231;-71
2023/02/08 07:55:34;;;;;;;18.53;9.23;;;-0.40;99.90;;;;;;5045797;28;20263;-71
2023/02/08 07:58:00;;;;;;;13.80;10.40;;;-0.40;99.90;;;;;;5027376;28;20282;-69
2023/02/08 08:00:26;;;;;;;15.07;11.10;;;-0.40;99.90;;;;;;5042879;28;20275;-70
2023/02/08 08:02:53;;;;;;;16.13;11.13;;;-0.30;99.90;;;;;;5018272;28;20232;-70
2023/02/08 08:05:19;;;;;;;32.00;18.67;;;-0.30;99.90;;;;;;5034719;28;20229;-69
2023/02/08 08:07:45;;;;;;;37.33;21.73;;;-0.30;99.90;;;;;;5032022;28;20448;-69
2023/02/08 08:10:10;;;;;;;45.27;24.30;;;-0.30;99.90;;;;;;5039011;28;20450;-70
2023/02/08 08:12:36;;;;;;;42.17;21.20;;;-0.20;99.90;;;;;;5026161;28;20239;-69
2023/02/08 08:15:02;;;;;;;43.87;22.83;;;-0.20;99.90;;;;;;5026390;28;20581;-67
2023/02/08 08:17:28;;;;;;;32.77;16.70;;;-0.10;99.90;;;;;;5040996;28;20292;-69
2023/02/08 08:19:53;;;;;;;31.70;17.90;;;-0.10;99.90;;;;;;5017079;28;20552;-70
2023/02/08 08:22:19;;;;;;;32.70;17.27;;;-0.10;99.90;;;;;;5026848;28;20329;-70
2023/02/08 08:24:45;;;;;;;24.77;15.07;;;0.00;99.90;;;;;;5043144;28;20297;-70
2023/02/08 08:27:11;;;;;;;19.20;11.90;;;0.00;99.90;;;;;;5037583;28;20213;-70
2023/02/08 08:29:37;;;;;;;12.40;9.07;;;0.10;99.90;;;;;;5023754;28;20272;-70
2023/02/08 08:32:03;;;;;;;13.67;8.63;;;0.10;99.90;;;;;;5031446;28;20269;-70
2023/02/08 08:34:30;;;;;;;7.77;5.93;;;0.10;99.90;;;;;;5047664;28;20994;-70
2023/02/08 08:37:00;;;;;;;15.83;7.50;;;0.10;99.90;;;;;;5042747;28;20456;-70
2023/02/08 08:39:26;;;;;;;13.87;7.50;;;0.20;99.90;;;;;;5038320;28;21003;-70
2023/02/08 08:41:53;;;;;;;9.90;6.47;;;0.20;99.90;;;;;;5026952;28;20982;-69
2023/02/08 08:44:19;;;;;;;8.33;5.87;;;0.20;99.90;;;;;;5027412;28;20581;-71
2023/02/08 08:46:45;;;;;;;9.20;6.07;;;0.30;99.90;;;;;;5041868;28;20478;-70
2023/02/08 08:49:10;;;;;;;11.10;6.20;;;0.40;99.90;;;;;;5025988;28;20489;-70
2023/02/08 08:51:36;;;;;;;10.50;5.53;;;0.40;99.90;;;;;;5035442;28;20382;-70
2023/02/08 08:54:03;;;;;;;9.23;5.30;;;0.50;99.90;;;;;;5031679;28;20212;-68
2023/02/08 08:56:29;;;;;;;13.10;7.10;;;0.50;99.90;;;;;;5024399;28;20221;-68
2023/02/08 08:58:55;;;;;;;11.87;5.90;;;0.50;99.90;;;;;;5043770;28;20461;-69
2023/02/08 09:01:22;;;;;;;9.87;5.87;;;0.40;99.90;;;;;;5039358;28;20464;-69
2023/02/08 09:03:47;;;;;;;11.57;6.03;;;0.40;99.90;;;;;;5028477;28;20320;-69
2023/02/08 09:06:13;;;;;;;16.60;6.30;;;0.50;99.90;;;;;;5034342;28;20457;-68
2023/02/08 09:08:39;;;;;;;16.57;7.50;;;0.50;99.90;;;;;;5012047;28;20238;-69
2023/02/08 09:11:06;;;;;;;14.87;8.57;;;0.50;99.90;;;;;;5039812;28;20274;-69
2023/02/08 09:13:32;;;;;;;13.80;6.53;;;0.50;99.90;;;;;;5048485;28;20684;-70
2023/02/08 09:15:58;;;;;;;12.77;6.90;;;0.50;99.90;;;;;;5022036;28;20550;-69
2023/02/08 09:18:23;;;;;;;12.80;6.10;;;0.50;99.90;;;;;;5050405;28;20444;-69
2023/02/08 09:20:49;;;;;;;13.50;7.03;;;0.50;99.90;;;;;;5033874;28;20229;-69
2023/02/08 09:23:15;;;;;;;16.10;7.10;;;0.50;99.90;;;;;;5031059;28;20229;-69
2023/02/08 09:25:40;;;;;;;10.90;5.40;;;0.50;99.90;;;;;;5037889;28;20228;-69
2023/02/08 09:28:06;;;;;;;10.83;5.67;;;0.60;99.90;;;;;;5050022;28;20213;-70
2023/02/08 09:30:32;;;;;;;14.40;7.07;;;0.70;99.90;;;;;;5030219;28;20252;-67
2023/02/08 09:32:58;;;;;;;9.60;5.70;;;0.80;99.90;;;;;;5049594;28;20274;-70
2023/02/08 09:35:23;;;;;;;12.63;5.67;;;0.80;99.90;;;;;;5031369;28;20249;-69
2023/02/08 09:37:54;;;;;;;12.30;5.57;;;0.70;99.90;;;;;;5033341;28;20205;-69
2023/02/08 09:40:33;;;;;;;12.47;6.07;;;0.80;99.90;;;;;;5027122;28;20573;-70
2023/02/08 09:43:33;;;;;;;11.40;5.80;;;0.90;99.90;;;;;;5021774;28;20468;-69
2023/02/08 09:46:14;;;;;;;11.90;5.40;;;0.80;99.90;;;;;;5035496;28;20476;-68
2023/02/08 09:48:40;;;;;;;8.97;5.30;;;0.90;99.90;;;;;;5024501;28;20453;-68
2023/02/08 09:51:10;;;;;;;9.17;5.43;;;1.10;99.90;;;;;;5020968;28;20852;-68
2023/02/08 09:53:42;;;;;;;13.40;6.43;;;1.20;99.90;;;;;;5038936;28;20468;-68
2023/02/08 09:56:15;;;;;;;11.30;6.80;;;1.30;99.90;;;;;;5021034;28;20491;-68
2023/02/08 09:58:44;;;;;;;11.53;6.90;;;1.40;99.90;;;;;;5024916;28;20465;-67
2023/02/08 10:01:34;;;;;;;10.10;6.10;;;1.40;99.90;;;;;;5028577;28;20471;-68
2023/02/08 10:04:48;;;;;;;15.93;8.20;;;1.40;99.90;;;;;;5019496;28;21016;-68
2023/02/08 10:07:15;;;;;;;12.53;6.70;;;1.40;99.90;;;;;;5024777;28;20534;-70
2023/02/08 10:09:41;;;;;;;12.87;8.10;;;1.50;99.90;;;;;;5025180;28;20479;-68
2023/02/08 10:12:21;;;;;;;13.97;8.87;;;1.60;99.90;;;;;;5020267;28;21004;-68
2023/02/08 10:14:53;;;;;;;14.10;8.00;;;1.50;99.90;;;;;;5028162;28;20246;-68
2023/02/08 10:17:45;;;;;;;13.27;7.90;;;1.60;99.90;;;;;;5022559;28;20453;-67
2023/02/08 10:20:29;;;;;;;10.47;5.93;;;1.70;99.90;;;;;;5037647;28;20598;-67
2023/02/08 10:23:27;;;;;;;11.10;7.10;;;1.70;99.90;;;;;;5036799;28;20504;-70
2023/02/08 10:26:22;;;;;;;10.90;6.70;;;1.80;99.90;;;;;;5023179;28;20720;-70
2023/02/08 10:29:14;;;;;;;11.27;5.70;;;2.00;99.90;;;;;;5043974;28;20444;-69
2023/02/08 10:31:48;;;;;;;10.40;5.83;;;1.90;99.90;;;;;;5020637;28;20549;-68
2023/02/08 10:34:44;;;;;;;8.93;5.57;;;2.10;99.90;;;;;;5020619;28;20452;-69
2023/02/08 10:37:20;;;;;;;10.77;6.40;;;2.20;99.90;;;;;;5038984;28;20489;-68
2023/02/08 10:39:48;;;;;;;10.80;6.23;;;2.30;99.90;;;;;;5046252;28;20996;-68
2023/02/08 10:42:18;;;;;;;10.87;5.93;;;2.20;99.90;;;;;;5016130;28;20450;-68
2023/02/08 10:44:46;;;;;;;12.27;6.63;;;2.50;99.90;;;;;;5039885;28;20456;-69
2023/02/08 10:47:19;;;;;;;12.17;7.30;;;2.60;99.90;;;;;;5039285;28;20459;-69
2023/02/08 10:49:58;;;;;;;16.77;7.30;;;2.60;99.90;;;;;;5026422;28;20457;-69
2023/02/08 10:52:24;;;;;;;13.00;7.00;;;2.50;99.90;;;;;;5041966;28;20980;-70
2023/02/08 10:54:50;;;;;;;11.30;5.70;;;2.40;99.90;;;;;;5025371;28;20512;-68
2023/02/08 10:57:22;;;;;;;11.00;6.17;;;2.30;99.90;;;;;;5046101;28;20256;-68
2023/02/08 10:59:50;;;;;;;17.47;6.97;;;2.30;99.90;;;;;;5040640;28;20303;-69
2023/02/08 11:02:25;;;;;;;16.23;6.40;;;2.50;99.90;;;;;;5028338;28;20449;-69
2023/02/08 11:05:07;;;;;;;13.50;6.30;;;2.70;99.90;;;;;;5022275;28;20453;-70
2023/02/08 11:07:34;;;;;;;9.37;5.90;;;2.70;99.90;;;;;;5038974;28;20463;-68
2023/02/08 11:10:12;;;;;;;11.20;6.63;;;2.70;99.90;;;;;;5033524;28;20543;-68
2023/02/08 11:12:39;;;;;;;11.73;6.57;;;2.60;99.90;;;;;;5024454;28;20451;-68
2023/02/08 11:15:19;;;;;;;13.00;6.67;;;2.80;99.90;;;;;;5044169;28;20464;-68
2023/02/08 11:17:45;;;;;;;11.37;6.20;;;2.90;99.90;;;;;;5032938;28;20462;-69
2023/02/08 11:20:27;;;;;;;9.37;5.70;;;2.90;99.90;;;;;;5019797;28;20475;-68
2023/02/08 11:22:53;;;;;;;10.13;5.73;;;3.00;99.90;;;;;;5041812;28;20456;-69
2023/02/08 11:25:37;;;;;;;12.03;6.07;;;3.10;99.90;;;;;;5024451;28;20462;-70
2023/02/08 11:28:16;;;;;;;10.10;6.20;;;3.00;99.90;;;;;;5035479;28;20292;-69
2023/02/08 11:31:13;;;;;;;10.13;6.27;;;3.00;99.90;;;;;;5037675;28;20464;-68
2023/02/08 11:34:03;;;;;;;12.40;5.80;;;3.10;99.90;;;;;;5042061;28;20452;-70
2023/02/08 11:36:31;;;;;;;13.50;6.90;;;3.20;99.90;;;;;;5041005;28;20463;-69
2023/02/08 11:39:00;;;;;;;13.27;6.80;;;3.20;99.90;;;;;;5032689;28;20469;-68
2023/02/08 11:41:27;;;;;;;8.83;6.30;;;3.10;99.90;;;;;;5017784;28;20488;-69
2023/02/08 11:44:03;;;;;;;9.47;6.40;;;3.10;99.90;;;;;;5042125;28;20832;-69
2023/02/08 11:46:33;;;;;;;10.00;6.00;;;3.10;99.90;;;;;;5038666;28;20964;-69
2023/02/08 11:48:59;;;;;;;11.40;6.33;;;3.00;99.90;;;;;;5023063;28;20982;-68
2023/02/08 11:51:31;;;;;;;13.40;6.40;;;3.10;99.90;;;;;;5038608;28;20476;-69
2023/02/08 11:53:59;;;;;;;11.43;7.10;;;3.10;99.90;;;;;;5015783;28;20500;-70
2023/02/08 11:56:33;;;;;;;10.30;6.23;;;3.10;99.90;;;;;;5037956;28;20522;-70
2023/02/08 11:59:14;;;;;;;10.53;5.27;;;3.10;99.90;;;;;;5039784;28;21062;-69
2023/02/08 12:01:42;;;;;;;11.23;6.70;;;3.20;99.90;;;;;;5036734;28;20475;-69
2023/02/08 12:04:11;;;;;;;8.87;5.67;;;3.20;99.90;;;;;;5018771;28;20469;-68
2023/02/08 12:06:43;;;;;;;9.40;6.00;;;3.20;99.90;;;;;;5024072;28;20458;-70
2023/02/08 12:09:27;;;;;;;10.63;6.27;;;3.10;99.90;;;;;;5035056;28;20459;-69
2023/02/08 12:12:16;;;;;;;12.57;5.70;;;3.20;99.90;;;;;;5015839;28;20541;-69
2023/02/08 12:14:54;;;;;;;10.83;6.63;;;3.40;99.90;;;;;;5023799;28;20470;-69
2023/02/08 12:17:45;;;;;;;11.73;6.20;;;3.50;99.90;;;;;;5025650;28;20499;-68
2023/02/08 12:20:38;;;;;;;8.43;4.77;;;3.50;99.90;;;;;;5026267;28;20544;-68
2023/02/08 12:23:03;;;;;;;12.10;6.00;;;3.60;99.90;;;;;;5031851;28;20482;-70
2023/02/08 12:26:06;;;;;;;11.47;6.50;;;3.40;99.90;;;;;;5033758;28;20458;-70
2023/02/08 12:28:48;;;;;;;14.10;6.70;;;3.40;99.90;;;;;;5033813;28;20218;-68
2023/02/08 12:31:16;;;;;;;9.93;5.83;;;3.60;99.90;;;;;;5040637;28;20441;-69
2023/02/08 12:34:00;;;;;;;17.17;7.20;;;3.90;99.90;;;;;;5016733;28;20451;-68
2023/02/08 12:36:46;;;;;;;15.93;6.80;;;3.90;99.90;;;;;;5043544;28;20445;-69
2023/02/08 12:42:23;;;;;;;10.63;6.47;;;3.30;99.90;;;;;;5037574;28;20985;-69
2023/02/08 12:45:08;;;;;;;11.53;6.90;;;3.40;99.90;;;;;;5038181;28;21028;-69
2023/02/08 12:47:40;;;;;;;11.13;6.30;;;3.40;99.90;;;;;;5017807;28;20474;-68
2023/02/08 12:50:39;;;;;;;12.13;7.57;;;3.50;99.90;;;;;;5037766;28;20543;-70
2023/02/08 12:53:15;;;;;;;17.10;8.57;;;3.60;99.90;;;;;;5038617;28;21002;-69
2023/02/08 12:55:42;;;;;;;15.23;8.53;;;3.40;99.90;;;;;;5040141;28;20923;-68
2023/02/08 12:58:26;;;;;;;13.03;8.33;;;3.60;99.90;;;;;;5024896;28;20488;-68
2023/02/08 13:01:00;;;;;;;16.80;8.37;;;3.70;99.90;;;;;;5042409;28;20476;-70
2023/02/08 13:03:37;;;;;;;11.87;6.97;;;3.70;99.90;;;;;;5042239;28;20484;-70
2023/02/08 13:06:11;;;;;;;14.40;6.50;;;3.70;99.90;;;;;;5044087;28;20546;-70
2023/02/08 13:08:55;;;;;;;10.53;5.67;;;3.80;99.90;;;;;;5025580;28;20458;-70
2023/02/08 13:12:02;;;;;;;9.90;5.50;;;3.90;99.90;;;;;;5043257;28;20967;-70
2023/02/08 13:14:36;;;;;;;9.17;5.50;;;3.70;99.90;;;;;;4935771;28;20628;-70